sensor_id;sensor_type;location;lat;lon;timestamp;temperature;humidity
59067;DHT22;44854;50.838;4.438;2022-12-13T06:22:02;-2.30;99.90
59067;DHT22;44854;50.838;4.438;2022-12-13T06:24:28;-2.30;99.90
59067;DHT22;44854;50.838;4.438;2022-12-13T06:26:53;-2.40;99.90
59067;DHT22;44854;50.838;4.438;2022-12-13T06:29:20;-2.50;99.90
59067;DHT22;44854;50.838;4.438;2022-12-13T06:31:46;-2.30;99.90
59067;DHT22;44854;50.838;4.438;2022-12-13T06:34:11;-2.40;99.90
59067;DHT22;44854;50.838;4.438;2022-12-13T06:36:37;-2.40;99.90
59067;DHT22;44854;50.838;4.438;2022-12-13T06:39:04;-2.40;99.90
59067;DHT22;44854;50.838;4.438;2022-12-13T06:41:29;-2.40;99.90
59067;DHT22;44854;50.838;4.438;2022-12-13T06:43:55;-2.30;99.90
59067;DHT22;44854;50.838;4.438;2022-12-13T06:46:21;-2.30;99.90
59067;DHT22;44854;50.838;4.438;2022-12-13T06:48:46;-2.40;99.90
59067;DHT22;44854;50.838;4.438;2022-12-13T06:51:12;-2.30;99.90
59067;DHT22;44854;50.838;4.438;2022-12-13T06:53:38;-2.40;99.90
59067;DHT22;44854;50.838;4.438;2022-12-13T06:56:04;-2.30;99.90
59067;DHT22;44854;50.838;4.438;2022-12-13T06:58:30;-2.40;99.90
59067;DHT22;44854;50.838;4.438;2022-12-13T07:01:00;-2.40;99.90
59067;DHT22;44854;50.838;4.438;2022-12-13T07:03:26;-2.30;99.90
59067;DHT22;44854;50.838;4.438;2022-12-13T07:05:51;-2.30;99.90
59067;DHT22;44854;50.838;4.438;2022-12-13T07:08:17;-2.30;99.90
59067;DHT22;44854;50.838;4.438;2022-12-13T07:10:42;-2.30;99.90
59067;DHT22;44854;50.838;4.438;2022-12-13T07:13:08;-2.40;99.90
59067;DHT22;44854;50.838;4.438;2022-12-13T07:15:33;-2.40;99.90
59067;DHT22;44854;50.838;4.438;2022-12-13T07:17:59;-2.30;99.90
59067;DHT22;44854;50.838;4.438;2022-12-13T07:20:24;-2.40;99.90
59067;DHT22;44854;50.838;4.438;2022-12-13T07:22:50;-2.30;99.90
59067;DHT22;44854;50.838;4.438;2022-12-13T07:25:20;-2.20;99.90
59067;DHT22;44854;50.838;4.438;2022-12-13T07:27:46;-2.30;99.90
59067;DHT22;44854;50.838;4.438;2022-12-13T07:30:12;-2.30;99.90
59067;DHT22;44854;50.838;4.438;2022-12-13T07:32:38;-2.30;99.90
59067;DHT22;44854;50.838;4.438;2022-12-13T07:35:04;-2.20;99.90
59067;DHT22;44854;50.838;4.438;2022-12-13T07:37:29;-2.20;99.90
59067;DHT22;44854;50.838;4.438;2022-12-13T07:39:55;-2.20;99.90
59067;DHT22;44854;50.838;4.438;2022-12-13T07:42:20;-2.10;99.90
59067;DHT22;44854;50.838;4.438;2022-12-13T07:44:46;-2.10;99.90
59067;DHT22;44854;50.838;4.438;2022-12-13T07:47:11;-2.10;99.90
59067;DHT22;44854;50.838;4.438;2022-12-13T07:49:37;-2.10;99.90
59067;DHT22;44854;50.838;4.438;2022-12-13T07:52:08;-2.20;99.90
59067;DHT22;44854;50.838;4.438;2022-12-13T07:54:34;-2.20;99.90
59067;DHT22;44854;50.838;4.438;2022-12-13T07:56:59;-2.30;99.90
59067;DHT22;44854;50.838;4.438;2022-12-13T07:59:25;-2.30;99.90
59067;DHT22;44854;50.838;4.438;2022-12-13T08:01:51;-2.20;99.90
59067;DHT22;44854;50.838;4.438;2022-12-13T08:04:16;-2.20;99.90
59067;DHT22;44854;50.838;4.438;2022-12-13T08:06:42;-2.30;99.90
59067;DHT22;44854;50.838;4.438;2022-12-13T08:09:07;-2.30;99.90
59067;DHT22;44854;50.838;4.438;2022-12-13T08:11:33;-2.30;99.90
59067;DHT22;44854;50.838;4.438;2022-12-13T08:13:58;-2.20;99.90
59067;DHT22;44854;50.838;4.438;2022-12-13T08:16:24;-2.20;99.90
59067;DHT22;44854;50.838;4.438;2022-12-13T08:18:50;-2.20;99.90
59067;DHT22;44854;50.838;4.438;2022-12-13T08:21:16;-2.10;99.90
59067;DHT22;44854;50.838;4.438;2022-12-13T08:23:41;-2.00;99.90
59067;DHT22;44854;50.838;4.438;2022-12-13T08:26:07;-2.10;99.90
59067;DHT22;44854;50.838;4.438;2022-12-13T08:28:33;-1.90;99.90
59067;DHT22;44854;50.838;4.438;2022-12-13T08:31:03;-1.90;99.90
59067;DHT22;44854;50.838;4.438;2022-12-13T08:33:29;-1.80;99.90
59067;DHT22;44854;50.838;4.438;2022-12-13T08:35:54;-1.90;99.90
59067;DHT22;44854;50.838;4.438;2022-12-13T08:38:20;-2.00;99.90
59067;DHT22;44854;50.838;4.438;2022-12-13T08:40:46;-1.90;99.90
59067;DHT22;44854;50.838;4.438;2022-12-13T08:43:11;-1.90;99.90
59067;DHT22;44854;50.838;4.438;2022-12-13T08:45:37;-1.80;99.90
59067;DHT22;44854;50.838;4.438;2022-12-13T08:48:03;-1.70;99.90
59067;DHT22;44854;50.838;4.438;2022-12-13T08:50:29;-1.60;99.90
59067;DHT22;44854;50.838;4.438;2022-12-13T08:52:55;-1.50;99.90
59067;DHT22;44854;50.838;4.438;2022-12-13T08:55:21;-1.50;99.90
59067;DHT22;44854;50.838;4.438;2022-12-13T08:57:46;-1.50;99.90
59067;DHT22;44854;50.838;4.438;2022-12-13T09:00:13;-1.40;99.90
59067;DHT22;44854;50.838;4.438;2022-12-13T09:02:39;-1.30;99.90
59067;DHT22;44854;50.838;4.438;2022-12-13T09:05:05;-1.30;99.90
59067;DHT22;44854;50.838;4.438;2022-12-13T09:07:31;-1.30;99.90
59067;DHT22;44854;50.838;4.438;2022-12-13T09:09:57;-1.30;99.90
59067;DHT22;44854;50.838;4.438;2022-12-13T09:12:22;-1.20;99.90
59067;DHT22;44854;50.838;4.438;2022-12-13T09:14:48;-1.10;99.90
59067;DHT22;44854;50.838;4.438;2022-12-13T09:17:13;-1.00;99.90
59067;DHT22;44854;50.838;4.438;2022-12-13T09:19:39;-0.90;99.90
59067;DHT22;44854;50.838;4.438;2022-12-13T09:22:05;-0.90;99.90
59067;DHT22;44854;50.838;4.438;2022-12-13T09:24:30;-0.90;99.90
59067;DHT22;44854;50.838;4.438;2022-12-13T09:26:56;-0.80;99.90
59067;DHT22;44854;50.838;4.438;2022-12-13T09:29:22;-0.70;99.90
59067;DHT22;44854;50.838;4.438;2022-12-13T09:31:47;-0.70;99.90
59067;DHT22;44854;50.838;4.438;2022-12-13T09:34:13;-0.70;99.90
59067;DHT22;44854;50.838;4.438;2022-12-13T09:36:38;-0.80;99.90
59067;DHT22;44854;50.838;4.438;2022-12-13T09:39:04;-0.70;99.90
59067;DHT22;44854;50.838;4.438;2022-12-13T09:41:31;-0.50;99.90
59067;DHT22;44854;50.838;4.438;2022-12-13T09:44:02;-0.60;99.90
59067;DHT22;44854;50.838;4.438;2022-12-13T09:48:54;-0.30;99.90
59067;DHT22;44854;50.838;4.438;2022-12-13T09:51:20;-0.20;99.90
59067;DHT22;44854;50.838;4.438;2022-12-13T09:53:46;-0.20;99.90
59067;DHT22;44854;50.838;4.438;2022-12-13T09:56:13;0.00;99.90
59067;DHT22;44854;50.838;4.438;2022-12-13T09:58:39;0.10;99.90
59067;DHT22;44854;50.838;4.438;2022-12-13T10:01:05;0.10;99.90
59067;DHT22;44854;50.838;4.438;2022-12-13T10:03:30;0.20;99.90
59067;DHT22;44854;50.838;4.438;2022-12-13T10:05:57;0.30;99.90
59067;DHT22;44854;50.838;4.438;2022-12-13T10:08:27;0.30;99.90
59067;DHT22;44854;50.838;4.438;2022-12-13T10:10:55;0.30;99.90
59067;DHT22;44854;50.838;4.438;2022-12-13T10:13:40;0.20;99.90
59067;DHT22;44854;50.838;4.438;2022-12-13T10:16:10;0.20;99.90
59067;DHT22;44854;50.838;4.438;2022-12-13T10:18:39;0.30;99.90
59067;DHT22;44854;50.838;4.438;2022-12-13T10:21:09;0.40;99.90
59067;DHT22;44854;50.838;4.438;2022-12-13T10:23:35;0.60;99.90
59067;DHT22;44854;50.838;4.438;2022-12-13T10:26:01;0.60;99.90
59067;DHT22;44854;50.838;4.438;2022-12-13T10:28:32;0.60;99.90
59067;DHT22;44854;50.838;4.438;2022-12-13T10:30:58;0.70;99.90
59067;DHT22;44854;50.838;4.438;2022-12-13T10:33:26;0.70;99.90
59067;DHT22;44854;50.838;4.438;2022-12-13T10:36:10;0.70;99.90
59067;DHT22;44854;50.838;4.438;2022-12-13T10:38:40;0.70;99.90
59067;DHT22;44854;50.838;4.438;2022-12-13T10:41:25;0.80;99.90
59067;DHT22;44854;50.838;4.438;2022-12-13T10:46:39;0.80;99.90
59067;DHT22;44854;50.838;4.438;2022-12-13T10:49:22;0.80;99.90
59067;DHT22;44854;50.838;4.438;2022-12-13T10:51:48;0.90;99.90
59067;DHT22;44854;50.838;4.438;2022-12-13T10:54:29;0.90;99.90
59067;DHT22;44854;50.838;4.438;2022-12-13T10:56:55;1.00;99.90
59067;DHT22;44854;50.838;4.438;2022-12-13T11:01:56;0.90;99.90
59067;DHT22;44854;50.838;4.438;2022-12-13T11:04:32;1.00;99.90
59067;DHT22;44854;50.838;4.438;2022-12-13T11:06:59;1.00;99.90
59067;DHT22;44854;50.838;4.438;2022-12-13T11:09:26;0.90;99.90
59067;DHT22;44854;50.838;4.438;2022-12-13T11:11:52;1.00;99.90
59067;DHT22;44854;50.838;4.438;2022-12-13T11:14:19;1.00;99.90
59067;DHT22;44854;50.838;4.438;2022-12-13T11:16:49;0.90;99.90
59067;DHT22;44854;50.838;4.438;2022-12-13T11:19:19;1.00;99.90
59067;DHT22;44854;50.838;4.438;2022-12-13T11:21:46;1.10;99.90
59067;DHT22;44854;50.838;4.438;2022-12-13T11:24:16;1.20;99.90
59067;DHT22;44854;50.838;4.438;2022-12-13T11:26:44;1.20;99.90
59067;DHT22;44854;50.838;4.438;2022-12-13T11:39:20;1.60;99.90
59067;DHT22;44854;50.838;4.438;2022-12-13T11:41:54;1.70;99.90
59067;DHT22;44854;50.838;4.438;2022-12-13T11:46:53;1.90;99.90
59067;DHT22;44854;50.838;4.438;2022-12-13T12:00:04;2.00;99.90
59067;DHT22;44854;50.838;4.438;2022-12-13T12:02:34;2.10;99.90
59067;DHT22;44854;50.838;4.438;2022-12-13T12:05:02;2.10;99.90
59067;DHT22;44854;50.838;4.438;2022-12-13T12:07:39;2.10;99.90
59067;DHT22;44854;50.838;4.438;2022-12-13T12:12:34;2.20;99.90
59067;DHT22;44854;50.838;4.438;2022-12-13T12:15:03;2.30;99.90
59067;DHT22;44854;50.838;4.438;2022-12-13T12:17:29;2.30;99.90
59067;DHT22;44854;50.838;4.438;2022-12-13T12:19:55;2.30;99.90
59067;DHT22;44854;50.838;4.438;2022-12-13T12:22:27;2.40;99.90
59067;DHT22;44854;50.838;4.438;2022-12-13T12:27:45;2.40;99.90
59067;DHT22;44854;50.838;4.438;2022-12-13T12:30:22;2.50;99.90
59067;DHT22;44854;50.838;4.438;2022-12-13T12:35:20;2.50;99.90
59067;DHT22;44854;50.838;4.438;2022-12-13T12:43:06;2.50;99.90
59067;DHT22;44854;50.838;4.438;2022-12-13T12:50:47;2.30;99.90
59067;DHT22;44854;50.838;4.438;2022-12-13T12:58:53;2.30;99.90
59067;DHT22;44854;50.838;4.438;2022-12-13T13:01:28;2.30;99.90
59067;DHT22;44854;50.838;4.438;2022-12-13T13:03:56;2.50;99.90
59067;DHT22;44854;50.838;4.438;2022-12-13T13:06:24;2.40;99.90
59067;DHT22;44854;50.838;4.438;2022-12-13T13:11:24;2.50;99.90
59067;DHT22;44854;50.838;4.438;2022-12-13T13:14:24;2.40;99.90
59067;DHT22;44854;50.838;4.438;2022-12-13T13:16:51;2.50;99.90
59067;DHT22;44854;50.838;4.438;2022-12-13T13:26:40;2.70;99.90
59067;DHT22;44854;50.838;4.438;2022-12-13T13:29:21;2.50;99.90
59067;DHT22;44854;50.838;4.438;2022-12-13T13:34:29;2.20;99.90
59067;DHT22;44854;50.838;4.438;2022-12-13T13:36:55;2.20;99.90
59067;DHT22;44854;50.838;4.438;2022-12-13T13:41:53;2.20;99.90
59067;DHT22;44854;50.838;4.438;2022-12-13T13:47:14;2.20;99.90
59067;DHT22;44854;50.838;4.438;2022-12-13T13:52:35;2.00;99.90
59067;DHT22;44854;50.838;4.438;2022-12-13T14:20:57;1.90;99.90
59067;DHT22;44854;50.838;4.438;2022-12-13T14:31:14;2.00;99.90
59067;DHT22;44854;50.838;4.438;2022-12-13T14:33:42;2.00;99.90
59067;DHT22;44854;50.838;4.438;2022-12-13T14:36:08;2.00;99.90
59067;DHT22;44854;50.838;4.438;2022-12-13T14:38:37;1.90;99.90
59067;DHT22;44854;50.838;4.438;2022-12-13T14:41:12;1.90;99.90
59067;DHT22;44854;50.838;4.438;2022-12-13T14:43:39;1.90;99.90
59067;DHT22;44854;50.838;4.438;2022-12-13T14:46:05;1.80;99.90
59067;DHT22;44854;50.838;4.438;2022-12-13T14:48:33;1.70;99.90
59067;DHT22;44854;50.838;4.438;2022-12-13T14:50:59;1.70;99.90
59067;DHT22;44854;50.838;4.438;2022-12-13T14:53:36;1.80;99.90
59067;DHT22;44854;50.838;4.438;2022-12-13T14:56:04;1.80;99.90
59067;DHT22;44854;50.838;4.438;2022-12-13T14:58:30;1.70;99.90
59067;DHT22;44854;50.838;4.438;2022-12-13T15:00:56;1.80;99.90
59067;DHT22;44854;50.838;4.438;2022-12-13T15:03:24;1.80;99.90
59067;DHT22;44854;50.838;4.438;2022-12-13T15:05:56;1.80;99.90
59067;DHT22;44854;50.838;4.438;2022-12-13T15:08:23;1.80;99.90
59067;DHT22;44854;50.838;4.438;2022-12-13T15:10:56;1.80;99.90
59067;DHT22;44854;50.838;4.438;2022-12-13T15:13:27;1.80;99.90
59067;DHT22;44854;50.838;4.438;2022-12-13T15:15:57;1.80;99.90
59067;DHT22;44854;50.838;4.438;2022-12-13T15:18:25;1.80;99.90
59067;DHT22;44854;50.838;4.438;2022-12-13T15:20:54;1.70;99.90
59067;DHT22;44854;50.838;4.438;2022-12-13T15:23:33;1.60;99.90
59067;DHT22;44854;50.838;4.438;2022-12-13T15:26:01;1.60;99.90
59067;DHT22;44854;50.838;4.438;2022-12-13T15:28:31;1.50;99.90
59067;DHT22;44854;50.838;4.438;2022-12-13T15:30:58;1.60;99.90
59067;DHT22;44854;50.838;4.438;2022-12-13T15:33:25;1.50;99.90
59067;DHT22;44854;50.838;4.438;2022-12-13T15:38:25;1.40;99.90
59067;DHT22;44854;50.838;4.438;2022-12-13T15:40:51;1.40;99.90
59067;DHT22;44854;50.838;4.438;2022-12-13T15:43:19;1.50;99.90
59067;DHT22;44854;50.838;4.438;2022-12-13T15:45:46;1.50;99.90
59067;DHT22;44854;50.838;4.438;2022-12-13T15:48:34;1.40;99.90
59067;DHT22;44854;50.838;4.438;2022-12-13T15:51:12;1.40;99.90
59067;DHT22;44854;50.838;4.438;2022-12-13T15:53:39;1.50;99.90
59067;DHT22;44854;50.838;4.438;2022-12-13T15:58:51;1.30;99.90
59067;DHT22;44854;50.838;4.438;2022-12-13T16:01:24;1.40;99.90
59067;DHT22;44854;50.838;4.438;2022-12-13T16:03:49;1.50;99.90
59067;DHT22;44854;50.838;4.438;2022-12-13T16:06:18;1.60;99.90
59067;DHT22;44854;50.838;4.438;2022-12-13T16:08:47;1.60;99.90
59067;DHT22;44854;50.838;4.438;2022-12-13T16:11:14;1.50;99.90
59067;DHT22;44854;50.838;4.438;2022-12-13T16:13:40;1.40;99.90
59067;DHT22;44854;50.838;4.438;2022-12-13T16:18:41;1.30;99.90
59067;DHT22;44854;50.838;4.438;2022-12-13T16:21:07;1.40;99.90
59067;DHT22;44854;50.838;4.438;2022-12-13T16:23:33;1.40;99.90
59067;DHT22;44854;50.838;4.438;2022-12-13T16:25:58;1.40;99.90
59067;DHT22;44854;50.838;4.438;2022-12-13T16:28:24;1.40;99.90
59067;DHT22;44854;50.838;4.438;2022-12-13T16:33:22;1.30;99.90
59067;DHT22;44854;50.838;4.438;2022-12-13T16:35:48;1.40;99.90
59067;DHT22;44854;50.838;4.438;2022-12-13T16:38:14;1.30;99.90
59067;DHT22;44854;50.838;4.438;2022-12-13T16:40:40;1.10;99.90
59067;DHT22;44854;50.838;4.438;2022-12-13T16:43:06;1.00;99.90
59067;DHT22;44854;50.838;4.438;2022-12-13T16:45:38;1.00;99.90
59067;DHT22;44854;50.838;4.438;2022-12-13T16:48:05;1.10;99.90
59067;DHT22;44854;50.838;4.438;2022-12-13T16:50:31;1.10;99.90
59067;DHT22;44854;50.838;4.438;2022-12-13T16:52:57;1.20;99.90
59067;DHT22;44854;50.838;4.438;2022-12-13T16:55:22;1.20;99.90
59067;DHT22;44854;50.838;4.438;2022-12-13T16:57:54;1.40;99.90
59067;DHT22;44854;50.838;4.438;2022-12-13T17:00:20;1.50;99.90
59067;DHT22;44854;50.838;4.438;2022-12-13T17:02:47;1.30;99.90
59067;DHT22;44854;50.838;4.438;2022-12-13T17:05:13;1.30;99.90
59067;DHT22;44854;50.838;4.438;2022-12-13T17:07:38;1.30;99.90
59067;DHT22;44854;50.838;4.438;2022-12-13T17:10:04;1.30;99.90
59067;DHT22;44854;50.838;4.438;2022-12-13T17:12:30;1.30;99.90
59067;DHT22;44854;50.838;4.438;2022-12-13T17:14:55;1.40;99.90
59067;DHT22;44854;50.838;4.438;2022-12-13T17:17:21;1.40;99.90
59067;DHT22;44854;50.838;4.438;2022-12-13T17:19:46;1.30;99.90
59067;DHT22;44854;50.838;4.438;2022-12-13T17:22:12;1.40;99.90
59067;DHT22;44854;50.838;4.438;2022-12-13T17:24:37;1.30;99.90
59067;DHT22;44854;50.838;4.438;2022-12-13T17:27:04;1.30;99.90
59067;DHT22;44854;50.838;4.438;2022-12-13T17:29:29;1.30;99.90
59067;DHT22;44854;50.838;4.438;2022-12-13T17:31:55;1.30;99.90
59067;DHT22;44854;50.838;4.438;2022-12-13T17:34:21;1.30;99.90
59067;DHT22;44854;50.838;4.438;2022-12-13T17:36:46;1.30;99.90
59067;DHT22;44854;50.838;4.438;2022-12-13T17:39:12;1.30;99.90
59067;DHT22;44854;50.838;4.438;2022-12-13T17:41:37;1.30;99.90
59067;DHT22;44854;50.838;4.438;2022-12-13T17:44:04;1.20;99.90
59067;DHT22;44854;50.838;4.438;2022-12-13T17:46:29;1.30;99.90
59067;DHT22;44854;50.838;4.438;2022-12-13T17:48:55;1.20;99.90
59067;DHT22;44854;50.838;4.438;2022-12-13T17:51:21;1.20;99.90
59067;DHT22;44854;50.838;4.438;2022-12-13T17:53:46;1.20;99.90
59067;DHT22;44854;50.838;4.438;2022-12-13T17:56:12;1.40;99.90
59067;DHT22;44854;50.838;4.438;2022-12-13T17:58:42;1.50;99.90
59067;DHT22;44854;50.838;4.438;2022-12-13T18:01:11;1.50;99.90
59067;DHT22;44854;50.838;4.438;2022-12-13T18:03:36;1.40;99.90
59067;DHT22;44854;50.838;4.438;2022-12-13T18:06:02;1.30;99.90
59067;DHT22;44854;50.838;4.438;2022-12-13T18:08:28;1.30;99.90
59067;DHT22;44854;50.838;4.438;2022-12-13T18:10:54;1.30;99.90
59067;DHT22;44854;50.838;4.438;2022-12-13T18:13:23;1.40;99.90
59067;DHT22;44854;50.838;4.438;2022-12-13T18:15:49;1.30;99.90
59067;DHT22;44854;50.838;4.438;2022-12-13T18:18:14;1.20;99.90
59067;DHT22;44854;50.838;4.438;2022-12-13T18:20:40;1.10;99.90
59067;DHT22;44854;50.838;4.438;2022-12-13T18:23:05;1.10;99.90
59067;DHT22;44854;50.838;4.438;2022-12-13T18:25:31;1.10;99.90
59067;DHT22;44854;50.838;4.438;2022-12-13T18:27:57;1.10;99.90
59067;DHT22;44854;50.838;4.438;2022-12-13T18:30:23;1.20;99.90
59067;DHT22;44854;50.838;4.438;2022-12-13T18:32:51;1.20;99.90
59067;DHT22;44854;50.838;4.438;2022-12-13T18:35:16;1.10;99.90
59067;DHT22;44854;50.838;4.438;2022-12-13T18:37:42;1.20;99.90
59067;DHT22;44854;50.838;4.438;2022-12-13T18:40:08;1.10;99.90
59067;DHT22;44854;50.838;4.438;2022-12-13T18:42:33;1.10;99.90
59067;DHT22;44854;50.838;4.438;2022-12-13T18:44:59;1.00;99.90
59067;DHT22;44854;50.838;4.438;2022-12-13T18:47:27;1.00;99.90
59067;DHT22;44854;50.838;4.438;2022-12-13T18:49:53;0.90;99.90
59067;DHT22;44854;50.838;4.438;2022-12-13T18:52:19;1.00;99.90
59067;DHT22;44854;50.838;4.438;2022-12-13T18:54:44;1.00;99.90
59067;DHT22;44854;50.838;4.438;2022-12-13T18:57:11;1.00;99.90
59067;DHT22;44854;50.838;4.438;2022-12-13T18:59:36;1.00;99.90
59067;DHT22;44854;50.838;4.438;2022-12-13T19:02:02;1.10;99.90
59067;DHT22;44854;50.838;4.438;2022-12-13T19:04:27;1.10;99.90
59067;DHT22;44854;50.838;4.438;2022-12-13T19:06:53;1.00;99.90
59067;DHT22;44854;50.838;4.438;2022-12-13T19:09:18;0.90;99.90
59067;DHT22;44854;50.838;4.438;2022-12-13T19:11:44;0.90;99.90
59067;DHT22;44854;50.838;4.438;2022-12-13T19:14:10;0.90;99.90
59067;DHT22;44854;50.838;4.438;2022-12-13T19:16:35;0.90;99.90
59067;DHT22;44854;50.838;4.438;2022-12-13T19:19:01;0.90;99.90
59067;DHT22;44854;50.838;4.438;2022-12-13T19:21:26;1.00;99.90
59067;DHT22;44854;50.838;4.438;2022-12-13T19:23:52;0.90;99.90
59067;DHT22;44854;50.838;4.438;2022-12-13T19:26:18;0.90;99.90
59067;DHT22;44854;50.838;4.438;2022-12-13T19:28:45;0.90;99.90
59067;DHT22;44854;50.838;4.438;2022-12-13T19:31:12;0.80;99.90
59067;DHT22;44854;50.838;4.438;2022-12-13T19:33:38;0.80;99.90
59067;DHT22;44854;50.838;4.438;2022-12-13T19:36:03;0.70;99.90
59067;DHT22;44854;50.838;4.438;2022-12-13T19:38:30;0.80;99.90
59067;DHT22;44854;50.838;4.438;2022-12-13T19:40:56;0.80;99.90
59067;DHT22;44854;50.838;4.438;2022-12-13T19:43:21;0.80;99.90
59067;DHT22;44854;50.838;4.438;2022-12-13T19:45:47;0.90;99.90
59067;DHT22;44854;50.838;4.438;2022-12-13T19:48:13;0.80;99.90
59067;DHT22;44854;50.838;4.438;2022-12-13T19:50:39;0.70;99.90
59067;DHT22;44854;50.838;4.438;2022-12-13T19:53:05;0.70;99.90
59067;DHT22;44854;50.838;4.438;2022-12-13T19:55:31;0.70;99.90
59067;DHT22;44854;50.838;4.438;2022-12-13T19:57:57;0.60;99.90
59067;DHT22;44854;50.838;4.438;2022-12-13T20:00:23;0.60;99.90
59067;DHT22;44854;50.838;4.438;2022-12-13T20:02:49;0.60;99.90
59067;DHT22;44854;50.838;4.438;2022-12-13T20:05:15;0.60;99.90
59067;DHT22;44854;50.838;4.438;2022-12-13T20:07:40;0.70;99.90
59067;DHT22;44854;50.838;4.438;2022-12-13T20:10:06;0.80;99.90
59067;DHT22;44854;50.838;4.438;2022-12-13T20:12:32;0.80;99.90
59067;DHT22;44854;50.838;4.438;2022-12-13T20:14:57;0.90;99.90
59067;DHT22;44854;50.838;4.438;2022-12-13T20:17:27;0.90;99.90
59067;DHT22;44854;50.838;4.438;2022-12-13T20:19:52;0.70;99.90
59067;DHT22;44854;50.838;4.438;2022-12-13T20:22:18;0.60;99.90
59067;DHT22;44854;50.838;4.438;2022-12-13T20:24:44;0.50;99.90
59067;DHT22;44854;50.838;4.438;2022-12-13T20:27:09;0.50;99.90
59067;DHT22;44854;50.838;4.438;2022-12-13T20:29:35;0.60;99.90
59067;DHT22;44854;50.838;4.438;2022-12-13T20:32:00;0.60;99.90
59067;DHT22;44854;50.838;4.438;2022-12-13T20:34:26;0.50;99.90
59067;DHT22;44854;50.838;4.438;2022-12-13T20:36:52;0.50;99.90
59067;DHT22;44854;50.838;4.438;2022-12-13T20:39:18;0.50;99.90
59067;DHT22;44854;50.838;4.438;2022-12-13T20:41:43;0.50;99.90
59067;DHT22;44854;50.838;4.438;2022-12-13T20:44:09;0.50;99.90
59067;DHT22;44854;50.838;4.438;2022-12-13T20:46:35;0.50;99.90
59067;DHT22;44854;50.838;4.438;2022-12-13T20:49:02;0.40;99.90
59067;DHT22;44854;50.838;4.438;2022-12-13T20:51:28;0.40;99.90
59067;DHT22;44854;50.838;4.438;2022-12-13T20:53:55;0.50;99.90
59067;DHT22;44854;50.838;4.438;2022-12-13T20:56:21;0.50;99.90
59067;DHT22;44854;50.838;4.438;2022-12-13T20:58:47;0.50;99.90
59067;DHT22;44854;50.838;4.438;2022-12-13T21:01:23;0.50;99.90
59067;DHT22;44854;50.838;4.438;2022-12-13T21:03:51;0.50;99.90
59067;DHT22;44854;50.838;4.438;2022-12-13T21:06:17;0.60;99.90
59067;DHT22;44854;50.838;4.438;2022-12-13T21:08:42;0.50;99.90
59067;DHT22;44854;50.838;4.438;2022-12-13T21:11:28;0.50;99.90
59067;DHT22;44854;50.838;4.438;2022-12-13T21:14:01;0.50;99.90
59067;DHT22;44854;50.838;4.438;2022-12-13T21:16:28;0.50;99.90
59067;DHT22;44854;50.838;4.438;2022-12-13T21:18:56;0.60;99.90
59067;DHT22;44854;50.838;4.438;2022-12-13T21:21:22;0.60;99.90
59067;DHT22;44854;50.838;4.438;2022-12-13T21:23:48;0.60;99.90
59067;DHT22;44854;50.838;4.438;2022-12-13T21:26:13;0.70;99.90
59067;DHT22;44854;50.838;4.438;2022-12-13T21:28:39;0.60;99.90
59067;DHT22;44854;50.838;4.438;2022-12-13T21:31:09;0.50;99.90
59067;DHT22;44854;50.838;4.438;2022-12-13T21:33:35;0.60;99.90
59067;DHT22;44854;50.838;4.438;2022-12-13T21:36:11;0.60;99.90
59067;DHT22;44854;50.838;4.438;2022-12-13T21:38:37;0.60;99.90
59067;DHT22;44854;50.838;4.438;2022-12-13T21:41:04;0.60;99.90
59067;DHT22;44854;50.838;4.438;2022-12-13T21:43:29;0.50;99.90
59067;DHT22;44854;50.838;4.438;2022-12-13T21:46:02;0.50;99.90
59067;DHT22;44854;50.838;4.438;2022-12-13T21:48:27;0.50;99.90
59067;DHT22;44854;50.838;4.438;2022-12-13T21:50:53;0.60;99.90
59067;DHT22;44854;50.838;4.438;2022-12-13T21:53:19;0.50;99.90
59067;DHT22;44854;50.838;4.438;2022-12-13T21:55:44;0.60;99.90
59067;DHT22;44854;50.838;4.438;2022-12-13T21:58:10;0.50;99.90
59067;DHT22;44854;50.838;4.438;2022-12-13T22:00:54;0.50;99.90
59067;DHT22;44854;50.838;4.438;2022-12-13T22:03:19;0.60;99.90
59067;DHT22;44854;50.838;4.438;2022-12-13T22:05:45;0.60;99.90
59067;DHT22;44854;50.838;4.438;2022-12-13T22:08:10;0.60;99.90
59067;DHT22;44854;50.838;4.438;2022-12-13T22:10:36;0.70;99.90
59067;DHT22;44854;50.838;4.438;2022-12-13T22:13:21;0.70;99.90
59067;DHT22;44854;50.838;4.438;2022-12-13T22:15:47;0.60;99.90
59067;DHT22;44854;50.838;4.438;2022-12-13T22:18:12;0.50;99.90
59067;DHT22;44854;50.838;4.438;2022-12-13T22:20:38;0.40;99.90
59067;DHT22;44854;50.838;4.438;2022-12-13T22:23:04;0.50;99.90
59067;DHT22;44854;50.838;4.438;2022-12-13T22:25:29;0.60;99.90
59067;DHT22;44854;50.838;4.438;2022-12-13T22:27:55;0.60;99.90
59067;DHT22;44854;50.838;4.438;2022-12-13T22:30:20;0.60;99.90
59067;DHT22;44854;50.838;4.438;2022-12-13T22:32:46;0.60;99.90
59067;DHT22;44854;50.838;4.438;2022-12-13T22:35:11;0.50;99.90
59067;DHT22;44854;50.838;4.438;2022-12-13T22:37:38;0.40;99.90
59067;DHT22;44854;50.838;4.438;2022-12-13T22:40:04;0.30;99.90
59067;DHT22;44854;50.838;4.438;2022-12-13T22:42:30;0.40;99.90
59067;DHT22;44854;50.838;4.438;2022-12-13T22:44:56;0.50;99.90
59067;DHT22;44854;50.838;4.438;2022-12-13T22:47:21;0.40;99.90
59067;DHT22;44854;50.838;4.438;2022-12-13T22:49:47;0.40;99.90
59067;DHT22;44854;50.838;4.438;2022-12-13T22:52:12;0.40;99.90
59067;DHT22;44854;50.838;4.438;2022-12-13T22:54:38;0.40;99.90
59067;DHT22;44854;50.838;4.438;2022-12-13T22:57:03;0.50;99.90
59067;DHT22;44854;50.838;4.438;2022-12-13T22:59:29;0.50;99.90
59067;DHT22;44854;50.838;4.438;2022-12-13T23:01:55;0.30;99.90
59067;DHT22;44854;50.838;4.438;2022-12-13T23:04:21;0.20;99.90
59067;DHT22;44854;50.838;4.438;2022-12-13T23:06:47;0.30;99.90
59067;DHT22;44854;50.838;4.438;2022-12-13T23:09:13;0.20;99.90
59067;DHT22;44854;50.838;4.438;2022-12-13T23:11:38;0.20;99.90
59067;DHT22;44854;50.838;4.438;2022-12-13T23:14:26;0.20;99.90
59067;DHT22;44854;50.838;4.438;2022-12-13T23:16:52;0.20;99.90
59067;DHT22;44854;50.838;4.438;2022-12-13T23:19:17;0.20;99.90
